createdAt,value
2018-09-30T08:11:36.629Z,5.10
2018-09-30T08:16:53.357Z,4.60
2018-09-30T08:19:21.721Z,4.67
2018-09-30T08:21:50.569Z,4.30
2018-09-30T08:24:18.944Z,4.93
2018-09-30T08:26:47.198Z,4.70
2018-09-30T08:29:15.513Z,4.17
2018-09-30T08:31:43.843Z,4.33
2018-09-30T08:34:13.245Z,4.27
2018-09-30T08:36:41.703Z,4.30
2018-09-30T08:39:15.226Z,5.20
2018-09-30T08:41:43.590Z,3.13
2018-09-30T08:44:12.269Z,3.73
2018-09-30T08:49:18.484Z,4.00
2018-09-30T08:51:47.404Z,4.27
2018-09-30T08:54:18.015Z,3.47
2018-09-30T08:56:57.222Z,3.30
2018-09-30T08:59:28.557Z,3.83
2018-09-30T09:01:57.297Z,3.30
2018-09-30T09:04:25.996Z,4.17
2018-09-30T09:06:55.325Z,3.70
2018-09-30T09:09:24.295Z,3.33
2018-09-30T09:11:52.806Z,3.77
2018-09-30T09:14:24.753Z,3.70
2018-09-30T09:16:53.430Z,3.60
2018-09-30T09:19:28.459Z,3.17
2018-09-30T09:21:57.254Z,2.80
2018-09-30T09:24:41.132Z,3.70
2018-09-30T09:27:12.689Z,3.47
2018-09-30T09:29:41.665Z,3.13
2018-09-30T09:32:12.315Z,3.70
2018-09-30T09:34:43.793Z,3.37
2018-09-30T09:37:12.215Z,3.00
2018-09-30T09:39:50.499Z,3.00
2018-09-30T09:45:11.269Z,2.93
2018-09-30T09:47:40.339Z,3.10
2018-09-30T09:50:09.089Z,2.90
2018-09-30T09:52:38.279Z,2.77
2018-09-30T09:57:44.918Z,3.40
2018-09-30T10:00:17.717Z,2.60
2018-09-30T10:02:46.507Z,3.37
2018-09-30T10:05:15.266Z,2.43
2018-09-30T10:07:44.575Z,2.93
2018-09-30T10:10:13.029Z,2.70
2018-09-30T10:12:41.840Z,2.73
2018-09-30T10:15:12.232Z,2.70
2018-09-30T10:17:42.985Z,3.23
2018-09-30T10:20:11.366Z,3.33
2018-09-30T10:22:40.608Z,2.80
2018-09-30T10:38:18.420Z,2.73
2018-09-30T10:40:47.545Z,2.90
2018-09-30T10:43:16.102Z,2.70
2018-09-30T10:45:44.601Z,2.70
2018-09-30T10:48:13.623Z,2.63
2018-09-30T10:50:41.981Z,2.07
2018-09-30T10:53:10.870Z,2.50
2018-09-30T10:58:21.219Z,2.57
2018-09-30T11:00:50.931Z,2.30
2018-09-30T11:03:19.722Z,2.07
2018-09-30T11:05:48.027Z,2.40
2018-09-30T11:08:20.209Z,2.70
2018-09-30T11:10:48.550Z,2.27
2018-09-30T11:15:54.671Z,2.10
2018-09-30T11:18:23.452Z,2.50
2018-09-30T11:20:54.897Z,1.87
2018-09-30T11:23:24.339Z,2.63
2018-09-30T11:25:52.933Z,2.50
2018-09-30T11:28:21.145Z,1.97
2018-09-30T11:31:36.635Z,2.57
2018-09-30T11:34:05.189Z,2.17
2018-09-30T11:36:34.514Z,2.47
2018-09-30T11:39:04.025Z,1.70
2018-09-30T11:41:40.514Z,2.20
2018-09-30T11:44:08.894Z,2.43
2018-09-30T11:46:37.298Z,2.33
2018-09-30T11:49:07.924Z,2.00
2018-09-30T11:51:36.846Z,2.60
2018-09-30T11:54:05.194Z,2.60
2018-09-30T11:56:34.924Z,2.53
2018-09-30T11:59:03.351Z,2.30
2018-09-30T12:01:31.605Z,1.90
2018-09-30T12:04:00.255Z,2.23
2018-09-30T12:06:28.706Z,2.47
2018-09-30T12:08:57.394Z,2.50
2018-09-30T12:11:29.154Z,1.97
2018-09-30T12:13:57.936Z,1.93
2018-09-30T12:16:26.469Z,2.40
2018-09-30T12:18:54.850Z,2.63
2018-09-30T12:21:25.954Z,2.00
2018-09-30T12:23:59.147Z,2.33
2018-09-30T12:29:09.174Z,1.40
2018-09-30T12:31:37.954Z,2.20
2018-09-30T12:34:10.168Z,1.83
2018-09-30T12:36:39.064Z,1.77
2018-09-30T12:39:09.203Z,1.87
2018-09-30T12:41:38.012Z,2.10
2018-09-30T12:44:06.860Z,1.80
2018-09-30T12:46:35.458Z,2.00
2018-09-30T12:49:04.406Z,2.33
2018-09-30T12:51:33.536Z,2.00
2018-09-30T12:54:01.859Z,1.80
2018-09-30T12:56:30.279Z,1.77
2018-09-30T12:59:00.180Z,2.30
2018-09-30T13:01:29.328Z,1.80
2018-09-30T13:04:05.402Z,1.80
2018-09-30T13:06:33.649Z,4.90
2018-09-30T13:09:03.453Z,2.00
2018-09-30T13:11:33.200Z,2.30
2018-09-30T13:14:01.622Z,2.17
2018-09-30T13:16:30.556Z,2.63
2018-09-30T13:18:58.950Z,2.13
2018-09-30T13:21:43.098Z,2.30
2018-09-30T13:24:18.589Z,1.70
2018-09-30T13:26:47.014Z,1.50
2018-09-30T13:29:15.676Z,2.27
2018-09-30T13:31:47.609Z,2.07
2018-09-30T13:34:16.346Z,1.63
2018-09-30T13:36:45.250Z,1.50
2018-09-30T13:39:15.880Z,2.40
2018-09-30T13:44:44.924Z,1.67
2018-09-30T13:47:13.444Z,2.10
2018-09-30T13:49:45.051Z,1.90
2018-09-30T13:52:13.391Z,2.23
2018-09-30T13:54:42.667Z,1.63
2018-09-30T13:57:10.976Z,2.50
2018-09-30T13:59:39.160Z,1.97
2018-09-30T14:02:08.030Z,1.70
2018-09-30T14:04:36.894Z,1.60
2018-09-30T14:07:05.668Z,1.90
2018-09-30T14:09:34.115Z,1.97
2018-09-30T14:12:02.417Z,1.70
2018-09-30T14:14:30.915Z,1.83
2018-09-30T14:16:59.468Z,1.50
2018-09-30T14:19:28.711Z,1.60
2018-09-30T14:21:57.659Z,2.00
2018-09-30T14:24:27.133Z,1.50
2018-09-30T14:26:55.524Z,1.70
2018-09-30T14:29:23.667Z,1.90
2018-09-30T14:31:52.093Z,1.83
2018-09-30T14:34:20.388Z,2.30
2018-09-30T14:36:48.531Z,1.80
2018-09-30T14:39:16.913Z,2.07
2018-09-30T14:41:45.104Z,1.90
2018-09-30T14:44:13.408Z,1.83
2018-09-30T14:46:41.585Z,2.00
2018-09-30T14:49:09.762Z,1.90
2018-09-30T14:51:38.051Z,1.73
2018-09-30T14:54:07.284Z,2.00
2018-09-30T14:56:36.432Z,1.73
2018-09-30T14:59:04.716Z,2.10
2018-09-30T15:01:32.967Z,1.60
2018-09-30T15:04:01.244Z,2.17
2018-09-30T15:06:29.551Z,1.60
2018-09-30T15:08:57.799Z,1.70
2018-09-30T15:11:28.371Z,1.80
2018-09-30T15:13:56.647Z,1.70
2018-09-30T15:16:24.877Z,1.80
2018-09-30T15:18:53.107Z,1.70
2018-09-30T15:21:21.633Z,1.90
2018-09-30T15:23:49.953Z,1.53
2018-09-30T15:26:18.147Z,1.90
2018-09-30T15:28:46.543Z,2.30
2018-09-30T15:31:14.803Z,1.50
2018-09-30T15:33:43.192Z,1.70
2018-09-30T15:36:11.498Z,2.10
2018-09-30T15:38:39.751Z,1.60
2018-09-30T15:41:08.022Z,2.00
2018-09-30T15:43:36.262Z,2.10
2018-09-30T15:46:04.639Z,1.70
2018-09-30T15:48:32.874Z,1.60
2018-09-30T15:51:01.083Z,1.47
2018-09-30T15:53:29.366Z,1.70
2018-09-30T15:55:57.626Z,2.00
2018-09-30T15:58:27.464Z,1.90
2018-09-30T16:01:03.925Z,1.60
2018-09-30T16:03:32.157Z,1.90
2018-09-30T16:06:00.443Z,1.60
2018-09-30T16:08:28.675Z,2.00
2018-09-30T16:10:56.853Z,1.67
2018-09-30T16:13:25.093Z,1.70
2018-09-30T16:15:53.509Z,2.03
2018-09-30T16:18:38.455Z,2.30
2018-09-30T16:21:24.360Z,2.00
2018-09-30T16:23:52.513Z,1.90
2018-09-30T16:26:29.027Z,2.13
2018-09-30T16:28:57.178Z,2.37
2018-09-30T16:31:25.538Z,2.40
2018-09-30T16:33:53.724Z,1.60
2018-09-30T16:36:21.921Z,2.17
2018-09-30T16:38:50.172Z,2.17
2018-09-30T16:41:18.446Z,2.20
2018-09-30T16:43:46.740Z,2.50
2018-09-30T16:46:14.985Z,1.80
2018-09-30T16:48:50.111Z,2.77
2018-09-30T16:51:18.334Z,2.40
2018-09-30T16:53:46.549Z,2.67
2018-09-30T16:59:19.809Z,2.33
2018-09-30T17:01:48.031Z,2.50
2018-09-30T17:04:16.306Z,2.70
2018-09-30T17:06:44.730Z,4.07
2018-09-30T17:09:12.878Z,3.10
2018-09-30T17:11:41.153Z,3.23
2018-09-30T17:14:09.680Z,3.30
2018-09-30T17:16:38.013Z,3.20
2018-09-30T17:19:06.361Z,3.60
2018-09-30T17:21:34.522Z,3.57
2018-09-30T17:24:02.777Z,4.00
2018-09-30T17:26:31.049Z,3.97
2018-09-30T17:28:59.341Z,4.70
2018-09-30T17:31:27.618Z,4.50
2018-09-30T17:33:55.861Z,6.90
2018-09-30T17:36:24.040Z,7.10
2018-09-30T17:38:52.243Z,5.50
2018-09-30T17:41:20.515Z,5.73
2018-09-30T17:43:48.742Z,5.30
2018-09-30T17:46:16.935Z,5.60
2018-09-30T17:48:45.140Z,5.60
2018-09-30T17:51:13.637Z,5.63
2018-09-30T17:53:43.773Z,5.63
2018-09-30T17:56:12.746Z,5.97
2018-09-30T17:58:40.940Z,5.53
2018-09-30T18:01:09.177Z,6.00
2018-09-30T18:03:37.435Z,5.77
2018-09-30T18:06:05.678Z,5.20
2018-09-30T18:08:33.882Z,4.73
2018-09-30T18:11:02.181Z,4.73
2018-09-30T18:13:30.910Z,5.23
2018-09-30T18:15:59.125Z,6.80
2018-09-30T18:18:27.362Z,5.20
2018-09-30T18:20:55.647Z,5.27
2018-09-30T18:23:23.850Z,4.47
2018-09-30T18:25:52.282Z,4.17
2018-09-30T18:28:20.543Z,4.33
2018-09-30T18:30:48.922Z,2.80
2018-09-30T18:33:17.187Z,3.50
2018-09-30T18:35:46.060Z,3.10
2018-09-30T18:38:14.296Z,2.77
2018-09-30T18:40:47.727Z,3.47
2018-09-30T18:43:15.999Z,3.70
2018-09-30T18:45:44.582Z,3.77
2018-09-30T18:48:12.884Z,3.53
2018-09-30T18:50:41.803Z,3.53
2018-09-30T18:53:10.154Z,3.20
2018-09-30T18:55:38.401Z,2.80
2018-09-30T18:58:06.673Z,3.40
2018-09-30T19:00:34.870Z,3.37
2018-09-30T19:03:03.600Z,3.50
2018-09-30T19:05:32.064Z,2.97
2018-09-30T19:08:00.445Z,3.57
2018-09-30T19:10:28.773Z,3.30
2018-09-30T19:12:57.205Z,7.40
2018-09-30T19:15:25.596Z,2.50
2018-09-30T19:17:54.481Z,3.77
2018-09-30T19:20:22.828Z,4.20
2018-09-30T19:22:51.989Z,2.43
2018-09-30T19:25:20.382Z,3.30
2018-09-30T19:27:48.765Z,2.80
2018-09-30T19:30:17.181Z,3.37
2018-09-30T19:32:45.477Z,3.07
2018-09-30T19:35:14.048Z,3.10
2018-09-30T19:37:42.435Z,3.30
2018-09-30T19:40:10.887Z,3.30
2018-09-30T19:42:39.227Z,4.10
2018-09-30T19:45:07.867Z,4.33
2018-09-30T19:47:36.223Z,3.93
2018-09-30T19:50:04.693Z,4.83
2018-09-30T19:52:33.013Z,4.27
2018-09-30T19:55:01.381Z,4.33
2018-09-30T19:57:45.281Z,5.40
2018-09-30T20:00:14.234Z,4.47
2018-09-30T20:02:42.525Z,5.80
2018-09-30T20:05:10.872Z,6.20
2018-09-30T20:07:39.122Z,5.03
2018-09-30T20:10:07.381Z,5.77
2018-09-30T20:12:35.655Z,4.93
2018-09-30T20:15:04.045Z,4.93
2018-09-30T20:17:32.342Z,4.87
2018-09-30T20:20:00.586Z,4.90
2018-09-30T20:22:28.965Z,4.57
2018-09-30T20:24:57.288Z,5.17
2018-09-30T20:27:25.552Z,4.60
2018-09-30T20:29:54.308Z,4.70
2018-09-30T20:32:22.534Z,4.50
2018-09-30T20:34:50.841Z,6.13
2018-09-30T20:37:19.033Z,6.40
2018-09-30T20:39:47.288Z,5.30
2018-09-30T20:42:15.489Z,5.37
2018-09-30T20:44:43.763Z,5.87
2018-09-30T20:47:12.151Z,5.77
2018-09-30T20:49:41.020Z,6.30
2018-09-30T20:52:09.665Z,5.70
2018-09-30T20:54:38.787Z,6.07
2018-09-30T20:57:07.141Z,5.60
2018-09-30T20:59:36.415Z,5.60
2018-09-30T21:02:04.790Z,5.90
2018-09-30T21:04:33.091Z,5.30
2018-09-30T21:07:01.827Z,6.63
2018-09-30T21:09:30.237Z,6.50
2018-09-30T21:11:58.555Z,5.67
2018-09-30T21:14:27.231Z,6.33
2018-09-30T21:16:56.061Z,6.47
2018-09-30T21:19:24.314Z,6.17
2018-09-30T21:21:52.594Z,7.47
2018-09-30T21:24:21.327Z,7.63
2018-09-30T21:26:49.725Z,8.37
2018-09-30T21:29:18.192Z,8.77
2018-09-30T21:31:46.593Z,8.60
2018-09-30T21:34:14.859Z,8.60
2018-09-30T21:36:43.025Z,9.40
2018-09-30T21:39:11.922Z,7.50
2018-09-30T21:41:40.189Z,8.43
2018-09-30T21:44:08.624Z,7.17
2018-09-30T21:46:37.155Z,7.20
2018-09-30T21:49:05.530Z,7.40
2018-09-30T21:51:34.412Z,6.93
2018-09-30T21:54:02.684Z,7.00
2018-09-30T21:56:30.910Z,7.10
2018-09-30T21:58:59.148Z,8.10
2018-09-30T22:01:29.647Z,6.87
2018-09-30T22:03:57.688Z,6.20
2018-09-30T22:06:25.866Z,7.47
2018-09-30T22:08:54.074Z,7.30
2018-09-30T22:11:22.317Z,7.50
2018-09-30T22:13:50.558Z,8.20
2018-09-30T22:16:18.882Z,7.10
2018-09-30T22:18:47.042Z,7.00
2018-09-30T22:21:15.261Z,8.20
2018-09-30T22:23:43.496Z,8.03
2018-09-30T22:26:11.666Z,8.13
2018-09-30T22:28:39.977Z,7.27
2018-09-30T22:31:08.148Z,6.90
2018-09-30T22:33:36.346Z,6.40
2018-09-30T22:36:04.604Z,7.10
2018-09-30T22:38:32.914Z,7.07
2018-09-30T22:41:01.137Z,5.83
2018-09-30T22:43:29.320Z,6.63
2018-09-30T22:45:58.108Z,6.53
2018-09-30T22:48:26.962Z,5.90
2018-09-30T22:50:55.152Z,6.60
2018-09-30T22:53:23.455Z,6.50
2018-09-30T22:55:51.524Z,6.80
2018-09-30T22:58:19.744Z,7.30
2018-09-30T23:00:47.928Z,6.43
2018-09-30T23:03:16.226Z,6.97
2018-09-30T23:05:44.428Z,6.83
2018-09-30T23:08:12.665Z,7.90
2018-09-30T23:10:40.886Z,6.80
2018-09-30T23:13:09.200Z,7.20
2018-09-30T23:15:37.383Z,7.03
2018-09-30T23:18:05.582Z,7.43
2018-09-30T23:20:33.764Z,7.20
2018-09-30T23:23:01.995Z,6.60
2018-09-30T23:25:30.158Z,6.60
2018-09-30T23:27:59.768Z,5.47
2018-09-30T23:30:27.908Z,6.77
2018-09-30T23:32:56.170Z,6.00
2018-09-30T23:35:24.566Z,5.33
2018-09-30T23:37:53.323Z,6.10
2018-09-30T23:40:21.515Z,6.57
2018-09-30T23:42:49.697Z,4.67
2018-09-30T23:45:17.832Z,5.10
2018-09-30T23:47:46.044Z,4.73
2018-09-30T23:50:14.952Z,5.73
2018-09-30T23:52:43.183Z,5.50
2018-09-30T23:55:11.383Z,5.13
2018-09-30T23:57:39.752Z,5.33
